createdAt,value
2022-09-04T00:04:35.495Z,100109.84
2022-09-04T00:09:48.108Z,100114.16
2022-09-04T00:14:51.901Z,100115.94
2022-09-04T00:19:56.349Z,100117.00
2022-09-04T00:25:15.901Z,100105.81
2022-09-04T00:30:21.337Z,100117.16
2022-09-04T00:35:24.304Z,100108.28
2022-09-04T00:40:32.248Z,100113.25
2022-09-04T00:46:02.334Z,100115.84
2022-09-04T00:51:29.737Z,100118.66
2022-09-04T00:56:51.955Z,100122.16
2022-09-04T01:01:55.824Z,100122.38
2022-09-04T01:07:09.917Z,100124.63
2022-09-04T01:12:30.041Z,100138.81
2022-09-04T01:17:41.496Z,100136.16
2022-09-04T01:23:01.593Z,100139.72
2022-09-04T01:28:05.428Z,100146.19
2022-09-04T01:33:34.600Z,100141.81
2022-09-04T01:38:49.789Z,100142.88
2022-09-04T01:43:51.384Z,100145.28
2022-09-04T01:49:29.426Z,100138.16
2022-09-04T01:54:51.704Z,100149.53
2022-09-04T02:00:12.766Z,100152.44
2022-09-04T02:05:36.781Z,100155.00
2022-09-04T02:11:03.072Z,100152.78
2022-09-04T02:16:30.912Z,100149.94
2022-09-04T02:22:01.592Z,100156.66
2022-09-04T02:27:10.986Z,100157.00
2022-09-04T02:32:19.504Z,100158.75
2022-09-04T02:37:33.121Z,100169.44
2022-09-04T02:43:01.318Z,100171.94
2022-09-04T02:48:34.963Z,100179.91
2022-09-04T02:54:10.338Z,100178.56
2022-09-04T02:59:40.973Z,100176.31
2022-09-04T03:04:54.181Z,100186.22
2022-09-04T03:10:14.055Z,100189.09
2022-09-04T03:15:27.361Z,100185.13
2022-09-04T03:20:30.260Z,100180.16
2022-09-04T03:25:52.381Z,100192.53
2022-09-04T03:30:54.176Z,100194.44
2022-09-04T03:36:09.032Z,100190.63
2022-09-04T03:41:29.974Z,100194.44
2022-09-04T03:46:37.296Z,100193.50
2022-09-04T03:51:50.780Z,100197.31
2022-09-04T03:57:02.993Z,100196.59
2022-09-04T04:02:12.193Z,100209.19
2022-09-04T04:07:35.428Z,100210.38
2022-09-04T04:12:49.923Z,100210.84
2022-09-04T04:18:14.137Z,100214.50
2022-09-04T04:23:40.897Z,100214.00
2022-09-04T04:28:59.721Z,100225.88
2022-09-04T04:34:21.461Z,100224.06
2022-09-04T04:39:32.539Z,100222.56
2022-09-04T04:45:15.622Z,100233.94
2022-09-04T04:50:27.127Z,100238.31
2022-09-04T04:55:53.085Z,100239.06
2022-09-04T05:01:12.614Z,100250.88
2022-09-04T05:06:18.740Z,100250.03
2022-09-04T05:11:24.122Z,100256.91
2022-09-04T05:16:55.540Z,100260.56
2022-09-04T05:22:05.657Z,100271.66
2022-09-04T05:27:14.578Z,100278.41
2022-09-04T05:32:28.393Z,100280.81
2022-09-04T05:38:02.227Z,100285.00
2022-09-04T05:43:21.080Z,100293.50
2022-09-04T05:48:32.701Z,100299.81
2022-09-04T05:54:09.249Z,100302.28
2022-09-04T05:59:33.141Z,100312.31
2022-09-04T06:04:47.952Z,100310.66
2022-09-04T06:10:04.504Z,100322.19
2022-09-04T06:15:31.310Z,100324.59
2022-09-04T06:20:54.388Z,100338.84
2022-09-04T06:26:15.597Z,100335.63
2022-09-04T06:31:20.007Z,100351.47
2022-09-04T06:36:42.582Z,100353.03
2022-09-04T06:42:05.393Z,100358.00
2022-09-04T06:47:37.400Z,100372.53
2022-09-04T06:53:04.294Z,100370.13
2022-09-04T06:58:20.810Z,100372.16
2022-09-04T07:03:36.764Z,100379.31
2022-09-04T07:09:02.904Z,100385.94
2022-09-04T07:14:21.820Z,100392.47
2022-09-04T07:20:05.426Z,100392.03
2022-09-04T07:25:11.329Z,100381.31
2022-09-04T07:30:15.941Z,100394.94
2022-09-04T07:35:37.752Z,100397.09
2022-09-04T07:40:48.265Z,100398.78
2022-09-04T07:46:09.836Z,100403.91
2022-09-04T07:51:13.641Z,100409.66
2022-09-04T07:57:03.748Z,100411.06
2022-09-04T08:02:10.801Z,100415.34
2022-09-04T08:07:20.780Z,100416.88
2022-09-04T08:12:50.891Z,100419.59
2022-09-04T08:18:13.993Z,100419.72
2022-09-04T08:23:24.380Z,100428.44
2022-09-04T08:28:33.311Z,100432.59
2022-09-04T08:33:57.449Z,100450.09
2022-09-04T08:39:07.605Z,100447.25
2022-09-04T08:44:34.024Z,100440.56
2022-09-04T08:50:03.653Z,100447.97
2022-09-04T08:55:23.685Z,100445.22
2022-09-04T09:00:57.299Z,100446.28
2022-09-04T09:06:37.684Z,100439.13
2022-09-04T09:12:08.922Z,100449.25
2022-09-04T09:17:40.956Z,100447.34
2022-09-04T09:23:04.790Z,100437.50
2022-09-04T09:28:36.324Z,100446.28
2022-09-04T09:34:01.593Z,100440.81
2022-09-04T09:39:11.946Z,100440.31
2022-09-04T09:44:27.012Z,100441.97
2022-09-04T09:49:35.358Z,100446.63
2022-09-04T09:55:03.179Z,100441.97
2022-09-04T10:00:12.014Z,100435.06
2022-09-04T10:05:37.382Z,100434.59
2022-09-04T10:10:54.008Z,100429.94
2022-09-04T10:16:10.634Z,100421.50
2022-09-04T10:21:50.825Z,100414.34
2022-09-04T10:27:29.534Z,100416.81
2022-09-04T10:32:45.080Z,100422.06
2022-09-04T10:37:58.544Z,100425.03
2022-09-04T10:43:36.960Z,100419.69
2022-09-04T10:48:46.719Z,100426.97
2022-09-04T10:54:11.033Z,100423.50
2022-09-04T10:59:15.669Z,100419.44
2022-09-04T11:04:38.724Z,100420.75
2022-09-04T11:09:51.939Z,100424.69
2022-09-04T11:15:08.777Z,100427.06
2022-09-04T11:20:37.313Z,100436.44
2022-09-04T11:26:02.766Z,100435.63
2022-09-04T11:31:14.883Z,100439.19
2022-09-04T11:36:45.445Z,100433.47
2022-09-04T11:42:03.752Z,100432.16
2022-09-04T11:47:21.485Z,100435.63
2022-09-04T11:52:44.140Z,100438.38
2022-09-04T11:58:14.332Z,100430.47
2022-09-04T12:03:38.939Z,100447.19
2022-09-04T12:09:09.421Z,100447.66
2022-09-04T12:14:35.085Z,100452.66
2022-09-04T12:19:53.129Z,100441.44
2022-09-04T12:25:21.732Z,100440.84
2022-09-04T12:30:53.935Z,100443.09
2022-09-04T12:36:14.454Z,100437.41
2022-09-04T12:41:19.046Z,100429.41
2022-09-04T12:46:35.616Z,100435.72
2022-09-04T12:51:45.323Z,100441.69
2022-09-04T12:56:53.524Z,100432.00
2022-09-04T13:02:17.237Z,100437.06
2022-09-04T13:07:46.981Z,100431.09
2022-09-04T13:13:21.585Z,100435.47
2022-09-04T13:19:03.288Z,100432.25
2022-09-04T13:24:26.388Z,100426.75
2022-09-04T13:30:05.473Z,100439.88
2022-09-04T13:35:38.572Z,100436.56
2022-09-04T13:41:03.436Z,100442.63
2022-09-04T13:46:13.165Z,100444.53
2022-09-04T13:51:23.026Z,100445.94
2022-09-04T13:56:34.309Z,100435.59
2022-09-04T14:01:37.953Z,100438.56
2022-09-04T14:06:39.372Z,100439.41
2022-09-04T14:12:11.778Z,100443.94
2022-09-04T14:17:13.179Z,100438.69
2022-09-04T14:22:21.709Z,100436.41
2022-09-04T14:27:47.312Z,100433.16
2022-09-04T14:32:56.801Z,100436.88
2022-09-04T14:38:32.481Z,100444.38
2022-09-04T14:44:03.707Z,100440.47
2022-09-04T14:49:06.444Z,100442.47
2022-09-04T14:54:07.873Z,100448.47
2022-09-04T14:59:21.337Z,100450.09
2022-09-04T15:04:30.516Z,100455.56
2022-09-04T15:09:44.549Z,100461.31
2022-09-04T15:14:48.134Z,100473.13
2022-09-04T15:20:01.983Z,100466.81
2022-09-04T15:25:06.126Z,100463.22
2022-09-04T15:30:21.670Z,100460.00
2022-09-04T15:35:23.449Z,100458.22
2022-09-04T15:40:28.938Z,100463.81
2022-09-04T15:45:46.380Z,100478.59
2022-09-04T15:50:57.601Z,100468.72
2022-09-04T15:56:20.348Z,100477.50
2022-09-04T16:01:24.823Z,100485.72
2022-09-04T16:06:31.984Z,100482.75
2022-09-04T16:11:37.317Z,100486.56
2022-09-04T16:16:49.265Z,100481.91
2022-09-04T16:22:20.586Z,100484.09
2022-09-04T16:27:23.408Z,100495.03
2022-09-04T16:32:27.222Z,100495.03
2022-09-04T16:37:34.733Z,100494.56
2022-09-04T16:42:38.165Z,100492.31
2022-09-04T16:47:47.039Z,100497.78
2022-09-04T16:53:12.688Z,100498.63
2022-09-04T16:58:35.930Z,100500.03
2022-09-04T17:04:12.439Z,100517.31
2022-09-04T17:09:23.477Z,100518.63
2022-09-04T17:14:35.448Z,100524.09
2022-09-04T17:19:36.845Z,100525.78
2022-09-04T17:29:08.423Z,100530.66
2022-09-04T17:30:45.921Z,100531.25
2022-09-04T17:40:56.304Z,100533.50
2022-09-04T17:42:09.247Z,100548.53
2022-09-04T17:47:34.039Z,100556.00
2022-09-04T17:52:59.998Z,100558.06
2022-09-04T17:58:08.616Z,100566.28
2022-09-04T18:03:32.868Z,100569.97
2022-09-04T18:08:39.428Z,100576.31
2022-09-04T18:13:44.328Z,100584.38
2022-09-04T18:18:52.881Z,100586.81
2022-09-04T18:24:03.360Z,100597.78
2022-09-04T18:34:01.402Z,100596.34
2022-09-04T18:37:17.419Z,100603.25
2022-09-04T18:43:44.999Z,100604.41
2022-09-04T18:50:38.516Z,100619.78
2022-09-04T18:51:47.288Z,100621.94
2022-09-04T18:56:52.865Z,100628.72
2022-09-04T19:02:14.044Z,100627.66
2022-09-04T19:07:32.526Z,100625.50
2022-09-04T19:12:55.791Z,100629.06
2022-09-04T19:18:00.043Z,100628.72
2022-09-04T19:23:06.384Z,100644.00
2022-09-04T19:28:20.397Z,100645.41
2022-09-04T19:33:39.304Z,100655.06
2022-09-04T19:45:53.771Z,100644.84
2022-09-04T19:46:13.432Z,100648.41
2022-09-04T19:53:21.651Z,100648.16
2022-09-04T19:55:24.332Z,100652.81
2022-09-04T20:00:42.501Z,100658.53
2022-09-04T20:05:57.810Z,100657.44
2022-09-04T20:11:04.644Z,100661.88
2022-09-04T20:16:21.507Z,100658.75
2022-09-04T20:21:43.497Z,100661.28
2022-09-04T20:27:15.422Z,100669.25
2022-09-04T20:32:23.093Z,100668.06
2022-09-04T20:37:41.426Z,100672.81
2022-09-04T20:43:03.466Z,100679.38
2022-09-04T20:52:57.624Z,100674.34
2022-09-04T20:54:15.725Z,100673.78
2022-09-04T21:03:07.908Z,100678.19
2022-09-04T21:05:40.242Z,100683.19
2022-09-04T21:10:52.497Z,100688.31
2022-09-04T21:16:23.353Z,100683.06
2022-09-04T21:21:36.912Z,100697.22
2022-09-04T21:26:42.834Z,100696.44
2022-09-04T21:31:45.540Z,100702.84
2022-09-04T21:36:56.745Z,100698.91
2022-09-04T21:42:16.636Z,100705.81
2022-09-04T21:47:34.729Z,100700.22
2022-09-04T21:53:10.009Z,100703.44
2022-09-04T22:02:39.910Z,100709.50
2022-09-04T22:04:17.437Z,100710.81
2022-09-04T22:13:32.635Z,100719.88
2022-09-04T22:15:11.626Z,100712.72
2022-09-04T22:21:00.741Z,100708.69
2022-09-04T22:26:27.744Z,100712.72
2022-09-04T22:32:04.378Z,100715.72
2022-09-04T22:37:45.500Z,100707.72
2022-09-04T22:42:50.236Z,100707.03
2022-09-04T22:48:19.860Z,100703.91
2022-09-04T22:53:27.072Z,100706.06
2022-09-04T22:59:07.617Z,100711.28
2022-09-04T23:04:46.720Z,100700.81
2022-09-04T23:13:53.395Z,100709.03
2022-09-04T23:16:00.458Z,100709.97
2022-09-04T23:26:38.330Z,100715.44
2022-09-04T23:27:10.352Z,100713.53
2022-09-04T23:32:46.340Z,100705.22
2022-09-04T23:38:25.317Z,100710.34
2022-09-04T23:43:45.446Z,100711.53
2022-09-04T23:49:19.616Z,100707.00
2022-09-04T23:54:49.117Z,100712.13
2022-09-04T23:59:59.290Z,100721.91
